WEATHER DATA

YESTERDAY
Time Temp. Dewp. Hum. Wind dir Wind speed Wind gust Bar. 1h Prec. 24h Prec.
00:00 4.2 4.1 99 71 1.7 4.4 1006.5 0.0000 0.0000
00:09 4.1 4 99 161 0.3 2.8 1006.6 0.0000 0.0000
00:20 4.1 3.8 98 135 0.8 1.9 1006.6 0.0000 0.0000
00:30 4 3.7 98 90 0.8 3.3 1006.7 0.0000 0.0000
00:40 4 3.7 98 212 0.8 2.5 1006.8 0.0000 0.0000
00:50 3.9 3.6 98 129 0.8 1.9 1006.9 0.0000 0.0000
01:01 3.9 3.6 98 192 0.8 1.9 1007 0.0000 0.0000
01:10 3.8 3.5 98 188 0.8 2.5 1007.2 0.0000 0.0000
01:20 3.7 3.4 98 215 0.3 1.9 1007.1 0.0000 0.0000
01:31 3.7 3.4 98 214 0.3 1.7 1007.2 0.0000 0.0000
01:41 3.7 3.4 98 215 0.8 2.8 1007.4 0.0000 0.0000
01:51 3.5 3.2 98 225 1.1 2.8 1007.5 0.0000 0.0000
02:00 3.5 3.2 98 211 0.8 1.9 1007.6 0.0000 0.0000
02:11 3.4 3.1 98 216 0.8 1.9 1007.7 0.0000 0.0000
02:21 3.3 3 98 214 0.8 1.7 1007.8 0.0000 0.0000
02:31 3.3 3 98 205 0.8 1.9 1008 0.0000 0.0000
02:41 3.3 3 98 203 0.8 1.9 1008 0.0000 0.0000
02:52 3.2 2.9 98 218 0.8 1.7 1008.2 0.0000 0.0000
03:01 3.2 2.9 98 203 0.3 1.1 1008.2 0.0000 0.0000
03:11 3.3 3 98 197 0.8 1.9 1008.2 0.0000 0.0000
03:22 3.3 3 98 206 0.8 2.5 1008.2 0.0000 0.0000
03:32 3.3 3 98 199 0.8 1.9 1008.2 0.0000 0.0000
03:42 3.2 2.9 98 202 0.8 1.9 1008.2 0.0000 0.0000
03:52 3.2 2.9 98 214 0.8 1.9 1008.2 0.0000 0.0000
04:02 3.2 2.9 98 205 0.8 1.9 1008.4 0.0000 0.0000
04:12 3.2 2.9 98 221 0.8 1.9 1008.6 0.0000 0.0000
04:22 3.1 2.8 98 210 0.8 1.9 1008.5 0.0000 0.0000
04:33 3.1 2.8 98 180 0.8 1.7 1008.6 0.0000 0.0000
04:43 3 2.7 98 70 0.8 2.5 1008.7 0.0000 0.0000
04:53 3 2.7 98 45 0.3 1.1 1008.8 0.0000 0.0000
05:02 2.9 2.6 98 338 0.3 1.1 1008.9 0.0000 0.0000
05:11 2.9 2.6 98 270 0.3 1.1 1008.9 0.0000 0.0000
05:21 2.9 2.6 98 45 1.1 3.3 1009.1 0.0000 0.0000
05:32 2.6 2.5 99 35 1.1 3.6 1009.2 0.0000 0.0000
05:42 2.3 2.2 99 51 1.1 4.2 1009.4 0.0000 0.0000
05:52 2.1 2 99 32 0.8 1.9 1009.5 0.0000 0.0000
06:02 2 1.9 99 53 0.8 1.9 1009.6 0.0000 0.0000
06:12 1.9 1.6 98 90 0.8 1.7 1009.7 0.0000 0.0000
06:22 1.9 1.6 98 270 0.3 1.7 1009.8 0.0000 0.0000
06:32 1.9 1.6 98 270 0.3 1.7 1009.8 0.0000 0.0000
06:42 1.9 1.6 98 236 0.3 1.1 1010 0.0000 0.0000
06:53 2 1.7 98 230 0.3 1.7 1010.1 0.0000 0.0000
07:02 2 1.7 98 270 0.3 1.1 1010.1 0.0000 0.0000
07:12 2 1.7 98 233 0.3 1.7 1010.3 0.0000 0.0000
07:23 2 1.7 98 229 0.3 0.8 1010.4 0.0000 0.0000
07:33 2 1.7 98 315 0.3 1.9 1010.5 0.0000 0.0000
07:43 2 1.7 98 270 0.3 1.1 1010.7 0.0000 0.0000
07:53 2 1.7 98 230 0.3 1.7 1010.9 0.0000 0.0000
08:03 2 1.7 98 229 0.8 1.7 1011 0.0000 0.0000
08:13 2 1.7 98 243 0.8 1.7 1011.1 0.0000 0.0000
08:23 2 1.7 98 0 0.8 2.5 1011.3 0.0000 0.0000
08:33 2 1.7 98 45 0.8 1.9 1011.4 0.0000 0.0000
08:44 2 1.7 98 303 0.3 1.1 1011.5 0.0000 0.0000
08:53 2 1.7 98 14 0.8 1.9 1011.6 0.0000 0.0000
09:03 1.9 1.6 98 45 0.8 2.5 1011.6 0.0000 0.0000
09:14 1.9 1.6 98 32 0.8 2.8 1011.7 0.0000 0.0000
09:24 1.9 1.6 98 14 0.8 2.8 1011.7 0.0000 0.0000
09:34 1.9 1.6 98 34 0.8 1.9 1011.8 0.0000 0.0000
09:44 1.8 1.5 98 26 0.8 1.9 1012 0.0000 0.0000
09:54 1.9 1.6 98 35 0.8 1.9 1012.1 0.0000 0.0000
10:11 1.8 1.5 98 45 0.8 1.9 1012.1 0.0000 0.0000
10:21 1.8 1.5 98 55 0.8 3.3 1012.4 0.0000 0.0000
10:31 1.8 1.5 98 23 0.8 2.5 1012.4 0.0000 0.0000
10:42 1.8 1.5 98 5 0.3 1.1 1012.4 0.0000 0.0000
10:51 1.9 1.6 98 32 0.3 1.9 1012.4 0.0000 0.0000
11:01 2.1 1.8 98 70 0.8 1.9 1012.4 0.0000 0.0000
11:11 2.2 1.9 98 18 0.3 1.7 1012.4 0.0000 0.0000
11:22 2.2 1.9 98 64 1.1 3.3 1012.4 0.0000 0.0000
11:32 2.2 1.9 98 76 1.1 3.3 1012.3 0.0000 0.0000
11:42 2.2 1.9 98 90 0.3 1.9 1012.4 0.0000 0.0000
11:52 2.2 1.9 98 48 0.8 1.9 1012.3 0.0000 0.0000
12:02 2.2 1.9 98 71 1.7 3.6 1012.3 0.0000 0.0000
12:12 2.1 1.8 98 90 1.1 2.8 1012.3 0.0000 0.0000
12:23 2.2 1.9 98 15 0.3 1.9 1012.4 0.0000 0.0000
12:33 2.1 1.8 98 71 1.1 3.3 1012.3 0.0000 0.0000
12:43 2.1 1.8 98 135 1.1 2.5 1012.1 0.0000 0.0000
12:52 2.1 1.8 98 109 1.1 2.8 1012.2 0.0000 0.0000
13:03 2.2 1.9 98 90 0.8 2.5 1012.2 0.0000 0.0000
13:13 2.2 1.9 98 90 0.8 3.3 1012.2 0.0000 0.0000
13:23 2.3 2 98 324 0.3 1.7 1012.2 0.0000 0.0000
13:33 2.2 1.9 98 18 0.3 1.7 1012.3 0.0000 0.0000
13:44 2.3 2 98 150 0.3 1.1 1012.3 0.0000 0.0000
13:53 2.4 2.1 98 33 0.8 1.9 1012.2 0.0000 0.0000
14:03 2.4 2.1 98 18 0.3 1.1 1012.2 0.0000 0.0000
14:14 2.4 2.1 98 90 0.3 1.7 1012.2 0.0000 0.0000
14:24 2.4 2.1 98 127 0.8 1.9 1012.2 0.0000 0.0000
14:34 2.5 2.2 98 90 0.3 1.9 1012.1 0.0000 0.0000
14:43 2.5 2.2 98 153 0.3 1.9 1012.1 0.0000 0.0000
14:54 2.5 2.2 98 107 0.8 1.9 1012.1 0.0000 0.0000
15:04 2.5 2.2 98 111 0.8 2.5 1012.1 0.0000 0.0000
15:14 2.5 2.2 98 139 0.8 1.9 1012.1 0.0000 0.0000
15:24 2.5 2.2 98 90 0.8 1.9 1012.1 0.0000 0.0000
15:35 2.5 2.2 98 189 0.8 1.9 1012.2 0.0000 0.0000
15:44 2.5 2.2 98 30 0.3 1.9 1012.3 0.0000 0.0000
15:54 2.5 2.2 98 202 0.8 2.8 1012.3 0.0000 0.0000
16:05 2.5 2.2 98 221 0.8 2.5 1012.4 0.0000 0.0000
16:15 2.5 2.2 98 126 1.1 2.8 1012.4 0.0000 0.0000
16:25 2.5 2.2 98 205 0.3 1.1 1012.4 0.0000 0.0000
16:35 2.5 2.2 98 270 0.3 1.1 1012.3 0.0000 0.0000
16:45 2.5 2.2 98 226 1.1 2.8 1012.3 0.0000 0.0000
16:55 2.5 2.2 98 211 0.8 1.9 1012.2 0.0000 0.0000
17:05 2.5 2.2 98 189 0.8 1.9 1012.3 0.0000 0.0000
17:16 2.5 2.2 98 225 0.3 1.1 1012.2 0.0000 0.0000
17:26 2.5 2.2 98 195 0.3 1.1 1012.2 0.0000 0.0000
17:35 2.6 2.3 98 90 0.3 1.7 1012.1 0.0000 0.0000
17:45 2.5 2.2 98 147 0.3 1.7 1012.1 0.0000 0.0000
17:56 2.6 2.3 98 135 0.8 1.7 1012 0.0000 0.0000
18:06 2.6 2.3 98 90 0.3 1.1 1011.9 0.0000 0.0000
18:16 2.6 2.3 98 112 0.8 1.7 1011.8 0.0000 0.0000
18:27 2.7 2.4 98 172 0.8 1.9 1011.8 0.0000 0.0000
18:36 2.7 2.4 98 109 0.8 2.5 1011.9 0.0000 0.0000
18:46 2.7 2.4 98 202 0.3 1.7 1011.7 0.0000 0.0000
18:56 2.7 2.4 98 195 1.1 3.3 1011.6 0.0000 0.0000
19:07 2.7 2.4 98 140 1.1 2.8 1011.5 0.0000 0.0000
19:17 2.7 2.4 98 131 1.1 3.3 1011.3 0.0000 0.0000
19:27 2.7 2.4 98 135 1.1 3.6 1011.2 0.0000 0.0000
19:37 2.7 2.4 98 120 1.1 4.4 1011.3 0.1010 0.1000
19:47 2.7 2.4 98 105 1.1 4.2 1011.2 0.1010 0.1000
19:57 2.6 2.3 98 106 1.7 3.3 1011.2 0.1010 0.1000
20:07 2.7 2.4 98 128 1.1 3.6 1011 0.1010 0.1000
20:18 2.6 2.3 98 121 1.1 3.3 1011 0.1010 0.1000
20:27 2.7 2.4 98 128 1.1 3.3 1010.9 0.1010 0.1000
20:37 2.6 2.3 98 132 0.8 2.8 1010.7 0.0000 0.1000
20:47 2.6 2.3 98 130 0.8 2.8 1010.6 0.0000 0.1000
20:58 2.6 2.3 98 135 0.8 2.5 1010.4 0.0000 0.1000
21:08 2.7 2.4 98 154 0.8 1.9 1010.3 0.0000 0.1000
21:18 2.6 2.3 98 125 1.1 2.5 1010.3 0.0000 0.1000
21:28 2.6 2.3 98 119 1.1 2.8 1010.2 0.0000 0.1000
21:38 2.6 2.3 98 123 1.1 2.5 1010.1 0.0000 0.1000
21:48 2.6 2.3 98 127 1.1 3.3 1010 0.0000 0.1000
21:58 2.6 2.3 98 127 0.8 2.8 1009.9 0.0000 0.1000
22:09 2.6 2.3 98 119 1.1 3.3 1009.8 0.0000 0.1000
22:19 2.5 2.2 98 135 1.1 3.3 1009.8 0.0000 0.1000
22:28 2.5 2.2 98 132 1.1 2.8 1009.7 0.0000 0.1000
22:39 2.5 2.2 98 112 1.1 3.3 1009.6 0.0000 0.1000
22:49 2.5 2.2 98 111 1.7 3.3 1009.5 0.0000 0.1000
22:59 2.5 2.2 98 145 1.1 2.5 1009.4 0.0000 0.1000
23:09 2.5 2.2 98 126 1.1 3.3 1009.3 0.0000 0.1000
23:19 2.5 2.2 98 121 1.1 3.6 1009.4 0.1010 0.2000
23:29 2.5 2.2 98 150 1.1 2.8 1009.2 0.1010 0.2000
23:39 2.5 2.2 98 120 1.1 2.8 1009.1 0.1010 0.2000
23:49 2.5 2.2 98 135 1.1 2.8 1008.9 0.1010 0.2000

DAY STATISTIC

2021-12-06
TEMPERATURE
AVERAGE
2.6
HIGH
4.2
00:00
LOW
1.8
09:44
PRESSURE
AVERAGE
1010.5
HIGH
1012.4
10:21
LOW
1006.5
00:00
DEWPOINT
AVERAGE
2.3
HIGH
4.1
00:00
LOW
1.5
09:44
HUMIDITY
AVERAGE
98
HIGH
99
00:00
LOW
98
00:20
WIND SPEED
AVERAGE
0.8
HIGH
1.7
00:00
WIND GUST
AVERAGE
2.3
HIGH
4.4
00:00
WIND DIRECTION
PREVAILING
SE
24.6%
N
6.3
NE
14.1
E
18.3
SE
24.6
S
11.3
SW
19.0
W
4.2
NW
2.1
PRECIPITATION
RAIN HOUR
0.1
RAIN DAY
0.2
TEMPERATURE (°C)
LOW
1.8
HIGH
4.2
AVERAGE
2.6
PRESSURE (hpa)
LOW
1006.5
HIGH
1012.4
AVERAGE
1010.5
DEVICE